sensor_id;sensor_type;location;lat;lon;timestamp;temperature;humidity
47070;DHT22;32822;48.140;7.702;2024-01-06T00:02:01;7.80;72.10
47070;DHT22;32822;48.140;7.702;2024-01-06T00:04:29;7.80;72.10
47070;DHT22;32822;48.140;7.702;2024-01-06T00:06:56;7.60;72.10
47070;DHT22;32822;48.140;7.702;2024-01-06T00:09:23;7.60;72.40
47070;DHT22;32822;48.140;7.702;2024-01-06T00:11:50;7.60;72.40
47070;DHT22;32822;48.140;7.702;2024-01-06T00:14:16;7.60;72.40
47070;DHT22;32822;48.140;7.702;2024-01-06T00:16:43;7.50;72.50
47070;DHT22;32822;48.140;7.702;2024-01-06T00:19:10;7.40;72.80
47070;DHT22;32822;48.140;7.702;2024-01-06T00:21:39;7.30;72.70
47070;DHT22;32822;48.140;7.702;2024-01-06T00:24:05;7.40;72.80
47070;DHT22;32822;48.140;7.702;2024-01-06T00:26:32;7.40;72.80
47070;DHT22;32822;48.140;7.702;2024-01-06T00:28:59;7.30;72.60
47070;DHT22;32822;48.140;7.702;2024-01-06T00:31:25;7.40;72.50
47070;DHT22;32822;48.140;7.702;2024-01-06T00:33:52;7.40;72.50
47070;DHT22;32822;48.140;7.702;2024-01-06T00:36:19;7.40;72.50
47070;DHT22;32822;48.140;7.702;2024-01-06T00:38:47;7.30;72.40
47070;DHT22;32822;48.140;7.702;2024-01-06T00:41:13;7.20;72.70
47070;DHT22;32822;48.140;7.702;2024-01-06T00:43:40;7.10;72.80
47070;DHT22;32822;48.140;7.702;2024-01-06T00:46:07;7.00;72.80
47070;DHT22;32822;48.140;7.702;2024-01-06T00:48:34;7.00;73.00
47070;DHT22;32822;48.140;7.702;2024-01-06T00:51:00;7.10;72.90
47070;DHT22;32822;48.140;7.702;2024-01-06T00:53:27;7.00;72.40
47070;DHT22;32822;48.140;7.702;2024-01-06T00:55:55;7.00;72.70
47070;DHT22;32822;48.140;7.702;2024-01-06T00:58:21;7.00;72.70
47070;DHT22;32822;48.140;7.702;2024-01-06T01:00:47;6.90;72.70
47070;DHT22;32822;48.140;7.702;2024-01-06T01:03:14;6.80;73.00
47070;DHT22;32822;48.140;7.702;2024-01-06T01:05:41;6.90;73.00
47070;DHT22;32822;48.140;7.702;2024-01-06T01:08:07;6.90;73.00
47070;DHT22;32822;48.140;7.702;2024-01-06T01:10:34;6.90;72.60
47070;DHT22;32822;48.140;7.702;2024-01-06T01:13:02;6.90;72.30
47070;DHT22;32822;48.140;7.702;2024-01-06T01:15:29;6.90;72.30
47070;DHT22;32822;48.140;7.702;2024-01-06T01:17:56;6.80;72.40
47070;DHT22;32822;48.140;7.702;2024-01-06T01:20:22;6.70;72.50
47070;DHT22;32822;48.140;7.702;2024-01-06T01:22:49;6.70;72.50
47070;DHT22;32822;48.140;7.702;2024-01-06T01:25:16;6.80;72.50
47070;DHT22;32822;48.140;7.702;2024-01-06T01:27:42;6.80;72.50
47070;DHT22;32822;48.140;7.702;2024-01-06T01:30:11;6.70;72.30
47070;DHT22;32822;48.140;7.702;2024-01-06T01:32:39;6.60;72.60
47070;DHT22;32822;48.140;7.702;2024-01-06T01:35:06;6.60;72.80
47070;DHT22;32822;48.140;7.702;2024-01-06T01:37:33;6.60;72.80
47070;DHT22;32822;48.140;7.702;2024-01-06T01:40:00;6.60;72.70
47070;DHT22;32822;48.140;7.702;2024-01-06T01:42:27;6.70;72.60
47070;DHT22;32822;48.140;7.702;2024-01-06T01:44:53;6.80;72.40
47070;DHT22;32822;48.140;7.702;2024-01-06T01:47:21;6.80;72.20
47070;DHT22;32822;48.140;7.702;2024-01-06T01:49:48;6.70;72.10
47070;DHT22;32822;48.140;7.702;2024-01-06T01:52:16;6.70;72.20
47070;DHT22;32822;48.140;7.702;2024-01-06T01:54:42;6.80;72.20
47070;DHT22;32822;48.140;7.702;2024-01-06T01:57:10;6.80;72.00
47070;DHT22;32822;48.140;7.702;2024-01-06T01:59:38;6.80;72.10
47070;DHT22;32822;48.140;7.702;2024-01-06T02:02:05;6.70;72.20
47070;DHT22;32822;48.140;7.702;2024-01-06T02:04:33;6.60;72.50
47070;DHT22;32822;48.140;7.702;2024-01-06T02:07:00;6.70;72.50
47070;DHT22;32822;48.140;7.702;2024-01-06T02:09:27;6.70;72.50
47070;DHT22;32822;48.140;7.702;2024-01-06T02:11:56;6.70;72.60
47070;DHT22;32822;48.140;7.702;2024-01-06T02:14:23;6.70;72.60
47070;DHT22;32822;48.140;7.702;2024-01-06T02:16:49;6.70;72.80
47070;DHT22;32822;48.140;7.702;2024-01-06T02:19:16;6.60;72.80
47070;DHT22;32822;48.140;7.702;2024-01-06T02:21:51;6.60;72.80
47070;DHT22;32822;48.140;7.702;2024-01-06T02:24:18;6.50;73.50
47070;DHT22;32822;48.140;7.702;2024-01-06T02:26:44;6.50;73.30
47070;DHT22;32822;48.140;7.702;2024-01-06T02:29:11;6.50;73.40
47070;DHT22;32822;48.140;7.702;2024-01-06T02:31:38;6.50;73.20
47070;DHT22;32822;48.140;7.702;2024-01-06T02:34:05;6.50;73.30
47070;DHT22;32822;48.140;7.702;2024-01-06T02:36:31;6.50;73.40
47070;DHT22;32822;48.140;7.702;2024-01-06T02:38:59;6.50;73.30
47070;DHT22;32822;48.140;7.702;2024-01-06T02:41:26;6.50;73.10
47070;DHT22;32822;48.140;7.702;2024-01-06T02:43:54;6.50;73.10
47070;DHT22;32822;48.140;7.702;2024-01-06T02:46:21;6.50;73.10
47070;DHT22;32822;48.140;7.702;2024-01-06T02:48:48;6.50;73.10
47070;DHT22;32822;48.140;7.702;2024-01-06T02:51:15;6.40;73.20
47070;DHT22;32822;48.140;7.702;2024-01-06T02:53:41;6.50;73.10
47070;DHT22;32822;48.140;7.702;2024-01-06T02:56:11;6.50;73.00
47070;DHT22;32822;48.140;7.702;2024-01-06T02:58:38;6.50;73.40
47070;DHT22;32822;48.140;7.702;2024-01-06T03:01:05;6.50;72.70
47070;DHT22;32822;48.140;7.702;2024-01-06T03:03:31;6.50;72.80
47070;DHT22;32822;48.140;7.702;2024-01-06T03:05:58;6.50;72.60
47070;DHT22;32822;48.140;7.702;2024-01-06T03:08:25;6.50;72.60
47070;DHT22;32822;48.140;7.702;2024-01-06T03:10:52;6.50;72.60
47070;DHT22;32822;48.140;7.702;2024-01-06T03:13:20;6.50;72.60
47070;DHT22;32822;48.140;7.702;2024-01-06T03:15:46;6.40;72.70
47070;DHT22;32822;48.140;7.702;2024-01-06T03:18:13;6.40;72.80
47070;DHT22;32822;48.140;7.702;2024-01-06T03:20:40;6.40;73.10
47070;DHT22;32822;48.140;7.702;2024-01-06T03:23:07;6.30;73.10
47070;DHT22;32822;48.140;7.702;2024-01-06T03:25:33;6.30;73.10
47070;DHT22;32822;48.140;7.702;2024-01-06T03:28:01;6.30;72.80
47070;DHT22;32822;48.140;7.702;2024-01-06T03:30:29;6.40;72.70
47070;DHT22;32822;48.140;7.702;2024-01-06T03:32:56;6.40;72.50
47070;DHT22;32822;48.140;7.702;2024-01-06T03:35:22;6.40;72.50
47070;DHT22;32822;48.140;7.702;2024-01-06T03:37:49;6.30;72.40
47070;DHT22;32822;48.140;7.702;2024-01-06T03:40:16;6.30;72.70
47070;DHT22;32822;48.140;7.702;2024-01-06T03:42:42;6.30;72.80
47070;DHT22;32822;48.140;7.702;2024-01-06T03:45:09;6.20;73.00
47070;DHT22;32822;48.140;7.702;2024-01-06T03:47:37;6.10;73.10
47070;DHT22;32822;48.140;7.702;2024-01-06T03:50:04;6.20;73.10
47070;DHT22;32822;48.140;7.702;2024-01-06T03:52:31;6.10;72.70
47070;DHT22;32822;48.140;7.702;2024-01-06T03:54:58;6.10;72.80
47070;DHT22;32822;48.140;7.702;2024-01-06T03:57:25;6.10;72.90
47070;DHT22;32822;48.140;7.702;2024-01-06T03:59:51;6.10;73.00
47070;DHT22;32822;48.140;7.702;2024-01-06T04:02:18;6.10;73.10
47070;DHT22;32822;48.140;7.702;2024-01-06T04:04:46;6.10;72.60
47070;DHT22;32822;48.140;7.702;2024-01-06T04:07:13;6.10;72.70
47070;DHT22;32822;48.140;7.702;2024-01-06T04:09:42;6.20;72.70
47070;DHT22;32822;48.140;7.702;2024-01-06T04:12:08;6.20;72.70
47070;DHT22;32822;48.140;7.702;2024-01-06T04:14:35;6.10;72.60
47070;DHT22;32822;48.140;7.702;2024-01-06T04:17:02;6.00;72.80
47070;DHT22;32822;48.140;7.702;2024-01-06T04:19:28;5.90;73.00
47070;DHT22;32822;48.140;7.702;2024-01-06T04:21:56;5.90;73.10
47070;DHT22;32822;48.140;7.702;2024-01-06T04:24:23;5.90;73.10
47070;DHT22;32822;48.140;7.702;2024-01-06T04:26:50;6.00;73.20
47070;DHT22;32822;48.140;7.702;2024-01-06T04:29:16;6.00;72.90
47070;DHT22;32822;48.140;7.702;2024-01-06T04:31:43;6.00;72.90
47070;DHT22;32822;48.140;7.702;2024-01-06T04:34:10;6.00;72.80
47070;DHT22;32822;48.140;7.702;2024-01-06T04:36:36;6.00;72.80
47070;DHT22;32822;48.140;7.702;2024-01-06T04:39:04;5.90;72.90
47070;DHT22;32822;48.140;7.702;2024-01-06T04:41:32;5.90;73.10
47070;DHT22;32822;48.140;7.702;2024-01-06T04:43:58;6.00;73.20
47070;DHT22;32822;48.140;7.702;2024-01-06T04:46:25;6.00;73.00
47070;DHT22;32822;48.140;7.702;2024-01-06T04:48:52;6.00;73.10
47070;DHT22;32822;48.140;7.702;2024-01-06T04:51:18;6.00;73.80
47070;DHT22;32822;48.140;7.702;2024-01-06T04:53:45;6.00;73.20
47070;DHT22;32822;48.140;7.702;2024-01-06T04:56:13;6.00;73.00
47070;DHT22;32822;48.140;7.702;2024-01-06T04:58:40;6.10;73.10
47070;DHT22;32822;48.140;7.702;2024-01-06T05:01:07;6.00;72.80
47070;DHT22;32822;48.140;7.702;2024-01-06T05:03:34;6.10;72.90
47070;DHT22;32822;48.140;7.702;2024-01-06T05:06:01;6.10;73.10
47070;DHT22;32822;48.140;7.702;2024-01-06T05:08:27;6.10;73.10
47070;DHT22;32822;48.140;7.702;2024-01-06T05:10:56;6.10;73.40
47070;DHT22;32822;48.140;7.702;2024-01-06T05:13:24;6.10;73.10
47070;DHT22;32822;48.140;7.702;2024-01-06T05:15:51;6.00;73.00
47070;DHT22;32822;48.140;7.702;2024-01-06T05:18:18;6.10;73.20
47070;DHT22;32822;48.140;7.702;2024-01-06T05:20:44;6.10;73.10
47070;DHT22;32822;48.140;7.702;2024-01-06T05:23:11;6.10;73.30
47070;DHT22;32822;48.140;7.702;2024-01-06T05:25:38;6.10;73.40
47070;DHT22;32822;48.140;7.702;2024-01-06T05:28:04;6.10;73.40
47070;DHT22;32822;48.140;7.702;2024-01-06T05:30:32;6.10;73.20
47070;DHT22;32822;48.140;7.702;2024-01-06T05:32:59;6.10;73.20
47070;DHT22;32822;48.140;7.702;2024-01-06T05:35:26;6.10;73.20
47070;DHT22;32822;48.140;7.702;2024-01-06T05:37:52;6.20;73.40
47070;DHT22;32822;48.140;7.702;2024-01-06T05:40:19;6.10;73.20
47070;DHT22;32822;48.140;7.702;2024-01-06T05:42:46;6.10;73.10
47070;DHT22;32822;48.140;7.702;2024-01-06T05:45:13;6.10;73.20
47070;DHT22;32822;48.140;7.702;2024-01-06T05:47:41;6.20;73.30
47070;DHT22;32822;48.140;7.702;2024-01-06T05:50:08;6.20;73.00
47070;DHT22;32822;48.140;7.702;2024-01-06T05:52:35;6.20;73.70
47070;DHT22;32822;48.140;7.702;2024-01-06T05:55:02;6.20;73.20
47070;DHT22;32822;48.140;7.702;2024-01-06T05:57:30;6.20;72.90
47070;DHT22;32822;48.140;7.702;2024-01-06T05:59:56;6.20;73.00
47070;DHT22;32822;48.140;7.702;2024-01-06T06:02:23;6.30;72.70
47070;DHT22;32822;48.140;7.702;2024-01-06T06:04:51;6.20;72.80
47070;DHT22;32822;48.140;7.702;2024-01-06T06:07:18;6.20;72.90
47070;DHT22;32822;48.140;7.702;2024-01-06T06:09:45;6.20;72.90
47070;DHT22;32822;48.140;7.702;2024-01-06T06:12:13;6.20;72.90
47070;DHT22;32822;48.140;7.702;2024-01-06T06:14:39;6.20;72.50
47070;DHT22;32822;48.140;7.702;2024-01-06T06:17:06;6.20;72.50
47070;DHT22;32822;48.140;7.702;2024-01-06T06:19:33;6.20;72.40
47070;DHT22;32822;48.140;7.702;2024-01-06T06:22:01;6.20;72.30
47070;DHT22;32822;48.140;7.702;2024-01-06T06:24:28;6.20;72.50
47070;DHT22;32822;48.140;7.702;2024-01-06T06:26:54;6.20;72.30
47070;DHT22;32822;48.140;7.702;2024-01-06T06:29:21;6.20;72.40
47070;DHT22;32822;48.140;7.702;2024-01-06T06:31:48;6.30;72.30
47070;DHT22;32822;48.140;7.702;2024-01-06T06:34:14;6.20;72.10
47070;DHT22;32822;48.140;7.702;2024-01-06T06:36:41;6.20;72.30
47070;DHT22;32822;48.140;7.702;2024-01-06T06:39:09;6.30;72.30
47070;DHT22;32822;48.140;7.702;2024-01-06T06:41:36;6.30;72.20
47070;DHT22;32822;48.140;7.702;2024-01-06T06:44:02;6.20;72.20
47070;DHT22;32822;48.140;7.702;2024-01-06T06:46:29;6.20;72.10
47070;DHT22;32822;48.140;7.702;2024-01-06T06:48:57;6.30;72.20
47070;DHT22;32822;48.140;7.702;2024-01-06T06:51:23;6.20;72.00
47070;DHT22;32822;48.140;7.702;2024-01-06T06:53:52;6.20;72.30
47070;DHT22;32822;48.140;7.702;2024-01-06T06:56:20;6.20;72.30
47070;DHT22;32822;48.140;7.702;2024-01-06T06:58:47;6.10;72.40
47070;DHT22;32822;48.140;7.702;2024-01-06T07:01:14;6.10;72.50
47070;DHT22;32822;48.140;7.702;2024-01-06T07:03:41;6.10;72.30
47070;DHT22;32822;48.140;7.702;2024-01-06T07:06:08;6.10;72.40
47070;DHT22;32822;48.140;7.702;2024-01-06T07:08:34;6.00;72.60
47070;DHT22;32822;48.140;7.702;2024-01-06T07:11:04;6.10;72.90
47070;DHT22;32822;48.140;7.702;2024-01-06T07:13:32;6.00;72.80
47070;DHT22;32822;48.140;7.702;2024-01-06T07:15:58;6.10;72.80
47070;DHT22;32822;48.140;7.702;2024-01-06T07:18:25;6.00;72.80
47070;DHT22;32822;48.140;7.702;2024-01-06T07:20:52;6.00;72.70
47070;DHT22;32822;48.140;7.702;2024-01-06T07:23:18;6.10;72.80
47070;DHT22;32822;48.140;7.702;2024-01-06T07:25:45;6.10;72.60
47070;DHT22;32822;48.140;7.702;2024-01-06T07:28:12;6.10;72.40
47070;DHT22;32822;48.140;7.702;2024-01-06T07:30:40;6.10;72.50
47070;DHT22;32822;48.140;7.702;2024-01-06T07:33:06;6.10;72.50
47070;DHT22;32822;48.140;7.702;2024-01-06T07:35:33;6.10;72.60
47070;DHT22;32822;48.140;7.702;2024-01-06T07:38:00;6.10;72.70
47070;DHT22;32822;48.140;7.702;2024-01-06T07:40:27;6.10;72.80
47070;DHT22;32822;48.140;7.702;2024-01-06T07:42:53;6.00;72.90
47070;DHT22;32822;48.140;7.702;2024-01-06T07:45:20;6.00;73.10
47070;DHT22;32822;48.140;7.702;2024-01-06T07:47:49;6.00;73.50
47070;DHT22;32822;48.140;7.702;2024-01-06T07:50:15;6.10;73.10
47070;DHT22;32822;48.140;7.702;2024-01-06T07:52:42;6.10;73.00
47070;DHT22;32822;48.140;7.702;2024-01-06T07:55:09;6.10;73.00
47070;DHT22;32822;48.140;7.702;2024-01-06T07:57:35;6.20;72.70
47070;DHT22;32822;48.140;7.702;2024-01-06T08:00:02;6.20;72.50
47070;DHT22;32822;48.140;7.702;2024-01-06T08:02:29;6.20;72.70
47070;DHT22;32822;48.140;7.702;2024-01-06T08:04:57;6.10;72.80
47070;DHT22;32822;48.140;7.702;2024-01-06T08:07:24;6.20;72.80
47070;DHT22;32822;48.140;7.702;2024-01-06T08:09:51;6.20;72.70
47070;DHT22;32822;48.140;7.702;2024-01-06T08:12:17;6.20;73.10
47070;DHT22;32822;48.140;7.702;2024-01-06T08:14:44;6.30;72.90
47070;DHT22;32822;48.140;7.702;2024-01-06T08:17:11;6.20;72.50
47070;DHT22;32822;48.140;7.702;2024-01-06T08:19:37;6.20;72.90
47070;DHT22;32822;48.140;7.702;2024-01-06T08:22:05;6.20;73.20
47070;DHT22;32822;48.140;7.702;2024-01-06T08:24:32;6.20;73.00
47070;DHT22;32822;48.140;7.702;2024-01-06T08:26:59;6.30;73.10
47070;DHT22;32822;48.140;7.702;2024-01-06T08:29:26;6.20;73.10
47070;DHT22;32822;48.140;7.702;2024-01-06T08:31:52;6.20;73.30
47070;DHT22;32822;48.140;7.702;2024-01-06T08:34:21;6.20;74.00
47070;DHT22;32822;48.140;7.702;2024-01-06T08:36:47;6.20;73.30
47070;DHT22;32822;48.140;7.702;2024-01-06T08:39:15;6.20;73.30
47070;DHT22;32822;48.140;7.702;2024-01-06T08:41:42;6.20;73.10
47070;DHT22;32822;48.140;7.702;2024-01-06T08:44:09;6.30;73.00
47070;DHT22;32822;48.140;7.702;2024-01-06T08:46:36;6.30;72.90
47070;DHT22;32822;48.140;7.702;2024-01-06T08:49:02;6.30;72.80
47070;DHT22;32822;48.140;7.702;2024-01-06T08:51:29;6.30;72.70
47070;DHT22;32822;48.140;7.702;2024-01-06T08:53:56;6.40;72.70
47070;DHT22;32822;48.140;7.702;2024-01-06T08:56:24;6.40;72.50
47070;DHT22;32822;48.140;7.702;2024-01-06T08:58:51;6.40;72.50
47070;DHT22;32822;48.140;7.702;2024-01-06T09:01:17;6.40;72.50
47070;DHT22;32822;48.140;7.702;2024-01-06T09:03:44;6.50;72.40
47070;DHT22;32822;48.140;7.702;2024-01-06T09:06:11;6.50;72.30
47070;DHT22;32822;48.140;7.702;2024-01-06T09:08:37;6.50;72.30
47070;DHT22;32822;48.140;7.702;2024-01-06T09:11:04;6.60;72.50
47070;DHT22;32822;48.140;7.702;2024-01-06T09:13:32;6.60;72.50
47070;DHT22;32822;48.140;7.702;2024-01-06T09:15:59;6.70;72.60
47070;DHT22;32822;48.140;7.702;2024-01-06T09:18:26;6.70;72.40
47070;DHT22;32822;48.140;7.702;2024-01-06T09:20:52;6.80;72.50
47070;DHT22;32822;48.140;7.702;2024-01-06T09:23:20;6.80;72.10
47070;DHT22;32822;48.140;7.702;2024-01-06T09:25:47;6.80;71.90
47070;DHT22;32822;48.140;7.702;2024-01-06T09:28:15;6.90;72.00
47070;DHT22;32822;48.140;7.702;2024-01-06T09:30:43;6.90;71.40
47070;DHT22;32822;48.140;7.702;2024-01-06T09:33:10;6.90;70.70
47070;DHT22;32822;48.140;7.702;2024-01-06T09:35:40;7.00;70.40
47070;DHT22;32822;48.140;7.702;2024-01-06T09:38:07;7.00;69.70
47070;DHT22;32822;48.140;7.702;2024-01-06T09:40:34;7.00;69.60
47070;DHT22;32822;48.140;7.702;2024-01-06T09:43:02;7.00;69.40
47070;DHT22;32822;48.140;7.702;2024-01-06T09:45:28;7.10;69.80
47070;DHT22;32822;48.140;7.702;2024-01-06T09:47:58;7.10;70.00
47070;DHT22;32822;48.140;7.702;2024-01-06T09:50:25;7.10;71.40
47070;DHT22;32822;48.140;7.702;2024-01-06T09:52:53;7.20;70.30
47070;DHT22;32822;48.140;7.702;2024-01-06T09:55:29;7.20;69.30
47070;DHT22;32822;48.140;7.702;2024-01-06T09:57:56;7.20;68.50
47070;DHT22;32822;48.140;7.702;2024-01-06T10:00:22;7.20;68.60
47070;DHT22;32822;48.140;7.702;2024-01-06T10:02:50;7.20;68.90
47070;DHT22;32822;48.140;7.702;2024-01-06T10:05:18;7.20;69.10
47070;DHT22;32822;48.140;7.702;2024-01-06T10:07:46;7.20;69.10
47070;DHT22;32822;48.140;7.702;2024-01-06T10:10:14;7.20;69.10
47070;DHT22;32822;48.140;7.702;2024-01-06T10:12:41;7.20;67.90
47070;DHT22;32822;48.140;7.702;2024-01-06T10:15:10;7.20;68.10
47070;DHT22;32822;48.140;7.702;2024-01-06T10:17:37;7.20;68.60
47070;DHT22;32822;48.140;7.702;2024-01-06T10:20:07;7.10;68.80
47070;DHT22;32822;48.140;7.702;2024-01-06T10:22:37;7.10;69.10
47070;DHT22;32822;48.140;7.702;2024-01-06T10:25:05;7.10;69.20
47070;DHT22;32822;48.140;7.702;2024-01-06T10:27:34;7.20;69.10
47070;DHT22;32822;48.140;7.702;2024-01-06T10:30:01;7.20;69.30
47070;DHT22;32822;48.140;7.702;2024-01-06T10:32:31;7.20;69.70
47070;DHT22;32822;48.140;7.702;2024-01-06T10:34:58;7.30;69.80
47070;DHT22;32822;48.140;7.702;2024-01-06T10:37:26;7.30;68.90
47070;DHT22;32822;48.140;7.702;2024-01-06T10:40:06;7.30;68.80
47070;DHT22;32822;48.140;7.702;2024-01-06T10:42:33;7.30;68.70
47070;DHT22;32822;48.140;7.702;2024-01-06T10:45:01;7.30;68.80
47070;DHT22;32822;48.140;7.702;2024-01-06T10:47:29;7.40;69.00
47070;DHT22;32822;48.140;7.702;2024-01-06T10:49:59;7.40;69.10
47070;DHT22;32822;48.140;7.702;2024-01-06T10:52:27;7.40;69.20
47070;DHT22;32822;48.140;7.702;2024-01-06T10:54:54;7.40;67.90
47070;DHT22;32822;48.140;7.702;2024-01-06T10:57:23;7.40;68.70
47070;DHT22;32822;48.140;7.702;2024-01-06T10:59:51;7.40;68.60
47070;DHT22;32822;48.140;7.702;2024-01-06T11:02:18;7.40;68.50
47070;DHT22;32822;48.140;7.702;2024-01-06T11:04:46;7.40;68.50
47070;DHT22;32822;48.140;7.702;2024-01-06T11:07:14;7.50;68.30
47070;DHT22;32822;48.140;7.702;2024-01-06T11:09:45;7.50;67.70
47070;DHT22;32822;48.140;7.702;2024-01-06T11:12:13;7.60;68.00
47070;DHT22;32822;48.140;7.702;2024-01-06T11:14:43;7.60;68.20
47070;DHT22;32822;48.140;7.702;2024-01-06T11:17:11;7.60;68.00
47070;DHT22;32822;48.140;7.702;2024-01-06T11:19:44;7.60;67.40
47070;DHT22;32822;48.140;7.702;2024-01-06T11:22:20;7.60;67.70
47070;DHT22;32822;48.140;7.702;2024-01-06T11:24:47;7.60;67.00
47070;DHT22;32822;48.140;7.702;2024-01-06T11:27:17;7.60;67.50
47070;DHT22;32822;48.140;7.702;2024-01-06T11:29:46;7.60;67.30
47070;DHT22;32822;48.140;7.702;2024-01-06T11:32:19;7.60;67.40
47070;DHT22;32822;48.140;7.702;2024-01-06T11:34:50;7.50;67.20
47070;DHT22;32822;48.140;7.702;2024-01-06T11:37:25;7.50;66.90
47070;DHT22;32822;48.140;7.702;2024-01-06T11:39:51;7.50;66.60
47070;DHT22;32822;48.140;7.702;2024-01-06T11:42:19;7.50;66.80
47070;DHT22;32822;48.140;7.702;2024-01-06T11:44:51;7.50;67.20
47070;DHT22;32822;48.140;7.702;2024-01-06T11:47:18;7.40;67.00
47070;DHT22;32822;48.140;7.702;2024-01-06T11:49:54;7.50;66.90
47070;DHT22;32822;48.140;7.702;2024-01-06T11:52:22;7.50;66.90
47070;DHT22;32822;48.140;7.702;2024-01-06T11:54:52;7.50;66.80
47070;DHT22;32822;48.140;7.702;2024-01-06T11:57:18;7.50;67.40
47070;DHT22;32822;48.140;7.702;2024-01-06T11:59:46;7.50;67.20
47070;DHT22;32822;48.140;7.702;2024-01-06T12:02:14;7.50;67.10
47070;DHT22;32822;48.140;7.702;2024-01-06T12:04:42;7.50;66.90
47070;DHT22;32822;48.140;7.702;2024-01-06T12:07:10;7.50;66.70
47070;DHT22;32822;48.140;7.702;2024-01-06T12:09:38;7.50;67.30
47070;DHT22;32822;48.140;7.702;2024-01-06T12:12:06;7.50;67.10
47070;DHT22;32822;48.140;7.702;2024-01-06T12:14:33;7.60;66.10
47070;DHT22;32822;48.140;7.702;2024-01-06T12:16:59;7.50;66.40
47070;DHT22;32822;48.140;7.702;2024-01-06T12:19:29;7.50;66.60
47070;DHT22;32822;48.140;7.702;2024-01-06T12:21:57;7.60;66.50
47070;DHT22;32822;48.140;7.702;2024-01-06T12:24:23;7.60;65.80
47070;DHT22;32822;48.140;7.702;2024-01-06T12:26:50;7.50;66.20
47070;DHT22;32822;48.140;7.702;2024-01-06T12:29:17;7.50;66.10
47070;DHT22;32822;48.140;7.702;2024-01-06T12:31:45;7.60;66.40
47070;DHT22;32822;48.140;7.702;2024-01-06T12:34:12;7.60;66.80
47070;DHT22;32822;48.140;7.702;2024-01-06T12:36:41;7.60;66.50
47070;DHT22;32822;48.140;7.702;2024-01-06T12:39:11;7.70;66.60
47070;DHT22;32822;48.140;7.702;2024-01-06T12:41:39;7.70;65.90
47070;DHT22;32822;48.140;7.702;2024-01-06T12:44:06;7.70;66.20
47070;DHT22;32822;48.140;7.702;2024-01-06T12:46:33;7.60;66.50
47070;DHT22;32822;48.140;7.702;2024-01-06T12:49:00;7.70;67.10
47070;DHT22;32822;48.140;7.702;2024-01-06T12:51:27;7.70;66.80
47070;DHT22;32822;48.140;7.702;2024-01-06T12:53:55;7.70;66.50
47070;DHT22;32822;48.140;7.702;2024-01-06T12:56:22;7.70;66.10
47070;DHT22;32822;48.140;7.702;2024-01-06T12:58:49;7.70;66.60
47070;DHT22;32822;48.140;7.702;2024-01-06T13:01:16;7.60;66.90
47070;DHT22;32822;48.140;7.702;2024-01-06T13:03:43;7.70;66.70
47070;DHT22;32822;48.140;7.702;2024-01-06T13:06:10;7.60;66.20
47070;DHT22;32822;48.140;7.702;2024-01-06T13:08:36;7.60;66.30
47070;DHT22;32822;48.140;7.702;2024-01-06T13:11:05;7.60;66.30
47070;DHT22;32822;48.140;7.702;2024-01-06T13:13:32;7.60;67.00
47070;DHT22;32822;48.140;7.702;2024-01-06T13:15:59;7.60;66.80
47070;DHT22;32822;48.140;7.702;2024-01-06T13:18:27;7.60;66.00
47070;DHT22;32822;48.140;7.702;2024-01-06T13:20:54;7.60;66.30
47070;DHT22;32822;48.140;7.702;2024-01-06T13:23:21;7.60;66.50
47070;DHT22;32822;48.140;7.702;2024-01-06T13:25:47;7.60;66.40
47070;DHT22;32822;48.140;7.702;2024-01-06T13:28:15;7.60;66.80
47070;DHT22;32822;48.140;7.702;2024-01-06T13:30:42;7.60;66.60
47070;DHT22;32822;48.140;7.702;2024-01-06T13:33:09;7.50;67.10
47070;DHT22;32822;48.140;7.702;2024-01-06T13:35:36;7.50;67.30
47070;DHT22;32822;48.140;7.702;2024-01-06T13:38:03;7.50;67.50
47070;DHT22;32822;48.140;7.702;2024-01-06T13:40:30;7.40;67.60
47070;DHT22;32822;48.140;7.702;2024-01-06T13:42:57;7.40;68.50
47070;DHT22;32822;48.140;7.702;2024-01-06T13:45:26;7.40;68.70
47070;DHT22;32822;48.140;7.702;2024-01-06T13:47:53;7.40;69.10
47070;DHT22;32822;48.140;7.702;2024-01-06T13:50:19;7.40;68.90
47070;DHT22;32822;48.140;7.702;2024-01-06T13:52:46;7.40;69.10
47070;DHT22;32822;48.140;7.702;2024-01-06T13:55:13;7.30;68.60
47070;DHT22;32822;48.140;7.702;2024-01-06T13:57:40;7.30;68.70
47070;DHT22;32822;48.140;7.702;2024-01-06T14:00:08;7.30;68.70
47070;DHT22;32822;48.140;7.702;2024-01-06T14:02:37;7.30;68.40
47070;DHT22;32822;48.140;7.702;2024-01-06T14:05:04;7.30;68.50
47070;DHT22;32822;48.140;7.702;2024-01-06T14:07:33;7.30;68.70
47070;DHT22;32822;48.140;7.702;2024-01-06T14:10:00;7.40;68.50
47070;DHT22;32822;48.140;7.702;2024-01-06T14:12:29;7.40;68.90
47070;DHT22;32822;48.140;7.702;2024-01-06T14:14:56;7.40;68.80
47070;DHT22;32822;48.140;7.702;2024-01-06T14:17:22;7.40;69.00
47070;DHT22;32822;48.140;7.702;2024-01-06T14:19:50;7.40;69.00
47070;DHT22;32822;48.140;7.702;2024-01-06T14:22:17;7.30;69.20
47070;DHT22;32822;48.140;7.702;2024-01-06T14:24:44;7.30;69.70
47070;DHT22;32822;48.140;7.702;2024-01-06T14:27:11;7.30;69.80
47070;DHT22;32822;48.140;7.702;2024-01-06T14:29:38;7.30;69.60
47070;DHT22;32822;48.140;7.702;2024-01-06T14:32:06;7.30;70.00
47070;DHT22;32822;48.140;7.702;2024-01-06T14:34:32;7.40;70.10
47070;DHT22;32822;48.140;7.702;2024-01-06T14:37:01;7.40;69.70
47070;DHT22;32822;48.140;7.702;2024-01-06T14:39:27;7.40;69.90
47070;DHT22;32822;48.140;7.702;2024-01-06T14:41:54;7.40;70.10
47070;DHT22;32822;48.140;7.702;2024-01-06T14:44:21;7.40;69.90
47070;DHT22;32822;48.140;7.702;2024-01-06T14:46:48;7.40;70.10
47070;DHT22;32822;48.140;7.702;2024-01-06T14:49:16;7.40;70.20
47070;DHT22;32822;48.140;7.702;2024-01-06T14:51:42;7.40;70.10
47070;DHT22;32822;48.140;7.702;2024-01-06T14:54:12;7.40;70.20
47070;DHT22;32822;48.140;7.702;2024-01-06T14:56:39;7.30;70.20
47070;DHT22;32822;48.140;7.702;2024-01-06T14:59:06;7.30;70.50
47070;DHT22;32822;48.140;7.702;2024-01-06T15:01:33;7.30;70.60
47070;DHT22;32822;48.140;7.702;2024-01-06T15:03:59;7.20;70.60
47070;DHT22;32822;48.140;7.702;2024-01-06T15:06:26;7.20;70.90
47070;DHT22;32822;48.140;7.702;2024-01-06T15:08:53;7.30;72.90
47070;DHT22;32822;48.140;7.702;2024-01-06T15:11:21;7.30;71.30
47070;DHT22;32822;48.140;7.702;2024-01-06T15:13:48;7.40;71.10
47070;DHT22;32822;48.140;7.702;2024-01-06T15:16:14;7.40;70.90
47070;DHT22;32822;48.140;7.702;2024-01-06T15:18:41;7.50;70.70
47070;DHT22;32822;48.140;7.702;2024-01-06T15:21:08;7.40;70.40
47070;DHT22;32822;48.140;7.702;2024-01-06T15:23:34;7.50;70.40
47070;DHT22;32822;48.140;7.702;2024-01-06T15:26:01;7.50;70.30
47070;DHT22;32822;48.140;7.702;2024-01-06T15:28:30;7.50;70.50
47070;DHT22;32822;48.140;7.702;2024-01-06T15:30:57;7.40;70.30
47070;DHT22;32822;48.140;7.702;2024-01-06T15:33:25;7.50;70.30
47070;DHT22;32822;48.140;7.702;2024-01-06T15:35:52;7.50;70.50
47070;DHT22;32822;48.140;7.702;2024-01-06T15:38:19;7.50;70.90
47070;DHT22;32822;48.140;7.702;2024-01-06T15:40:46;7.50;71.50
47070;DHT22;32822;48.140;7.702;2024-01-06T15:43:13;7.40;71.70
47070;DHT22;32822;48.140;7.702;2024-01-06T15:45:41;7.40;71.90